Map

Track Data

SID SEASON NUMBER BASIN SUBBASIN NAME ISO_TIME NATURE LAT LON WMO_WIND WMO_PRES WMO_AGENCY TRACK_TYPE DIST2LAND LANDFALL IFLAG USA_AGENCY USA_ATCF_ID USA_LAT USA_LON USA_RECORD USA_STATUS USA_WIND USA_PRES USA_SSHS USA_R34_NE USA_R34_SE USA_R34_SW USA_R34_NW USA_R50_NE USA_R50_SE USA_R50_SW USA_R50_NW USA_R64_NE USA_R64_SE USA_R64_SW USA_R64_NW USA_POCI USA_ROCI USA_RMW USA_EYE TOKYO_LAT TOKYO_LON TOKYO_GRADE TOKYO_WIND TOKYO_PRES TOKYO_R50_DIR TOKYO_R50_LONG TOKYO_R50_SHORT TOKYO_R30_DIR TOKYO_R30_LONG TOKYO_R30_SHORT TOKYO_LAND CMA_LAT CMA_LON CMA_CAT CMA_WIND CMA_PRES HKO_LAT HKO_LON HKO_CAT HKO_WIND HKO_PRES NEWDELHI_LAT NEWDELHI_LON NEWDELHI_GRADE NEWDELHI_WIND NEWDELHI_PRES NEWDELHI_CI NEWDELHI_DP NEWDELHI_POCI REUNION_LAT REUNION_LON REUNION_TYPE REUNION_WIND REUNION_PRES REUNION_TNUM REUNION_CI REUNION_RMW REUNION_R34_NE REUNION_R34_SE REUNION_R34_SW REUNION_R34_NW REUNION_R50_NE REUNION_R50_SE REUNION_R50_SW REUNION_R50_NW REUNION_R64_NE REUNION_R64_SE REUNION_R64_SW REUNION_R64_NW BOM_LAT BOM_LON BOM_TYPE BOM_WIND BOM_PRES BOM_TNUM BOM_CI BOM_RMW BOM_R34_NE BOM_R34_SE BOM_R34_SW BOM_R34_NW BOM_R50_NE BOM_R50_SE BOM_R50_SW BOM_R50_NW BOM_R64_NE BOM_R64_SE BOM_R64_SW BOM_R64_NW BOM_ROCI BOM_POCI BOM_EYE BOM_POS_METHOD BOM_PRES_METHOD NADI_LAT NADI_LON NADI_CAT NADI_WIND NADI_PRES WELLINGTON_LAT WELLINGTON_LON WELLINGTON_WIND WELLINGTON_PRES DS824_LAT DS824_LON DS824_STAGE DS824_WIND DS824_PRES TD9636_LAT TD9636_LON TD9636_STAGE TD9636_WIND TD9636_PRES TD9635_LAT TD9635_LON TD9635_WIND TD9635_PRES TD9635_ROCI NEUMANN_LAT NEUMANN_LON NEUMANN_CLASS NEUMANN_WIND NEUMANN_PRES MLC_LAT MLC_LON MLC_CLASS MLC_WIND MLC_PRES USA_GUST BOM_GUST BOM_GUST_PER REUNION_GUST REUNION_GUST_PER USA_SEAHGT USA_SEARAD_NE USA_SEARAD_SE USA_SEARAD_SW USA_SEARAD_NW STORM_SPEED STORM_DIR
1977233N28132 1977 69 WP MM NOT_NAMED 1977-08-21 06:00:00 TS 28.2500 132.000 998 tokyo main 326 326 _OO___________ -1 27.0000 131.000 2 998 0 0 0 29.5000 133.000 1 29 998 13 68
1977233N28132 1977 69 WP MM NOT_NAMED 1977-08-21 09:00:00 TS 28.4883 132.688 main 339 335 _PP___________ -1 27.4404 131.718 2 997 0 0 29.5362 133.658 1 29 997 13 63
1977233N28132 1977 69 WP MM NOT_NAMED 1977-08-21 12:00:00 TS 28.8500 133.350 996 tokyo main 333 327 _OO___________ -1 28.0000 132.500 2 996 0 0 0 29.7000 134.200 1 29 996 15 51
1977233N28132 1977 69 WP MM NOT_NAMED 1977-08-21 15:00:00 TS 29.4057 133.981 main 334 334 _PP___________ -1 28.7425 133.384 2 995 0 0 30.0690 134.578 1 33 995 16 45
1977233N28132 1977 69 WP MM NOT_NAMED 1977-08-21 18:00:00 TS 30.0000 134.650 994 tokyo main 341 329 _OO___________ -1 29.5000 134.300 2 994 0 0 0 30.5000 135.000 2 38 994 16 50
1977233N28132 1977 69 WP MM NOT_NAMED 1977-08-21 21:00:00 TS 30.4624 135.432 main 321 291 _PP___________ -1 30.1019 135.166 2 993 0 0 30.8228 135.698 2 43 993 16 58
1977233N28132 1977 69 WP MM NOT_NAMED 1977-08-22 00:00:00 TS 30.8500 136.250 40 992 tokyo main 282 269 _OO___________ -1 30.6000 136.000 3 40 992 0 4 300 200 0 31.1000 136.500 3 48 992 16 62
1977233N28132 1977 69 WP MM NOT_NAMED 1977-08-22 03:00:00 TS 31.1820 137.034 main 269 268 _PP___________ -1 31.0370 136.816 3 40 991 0 4 250 200 31.3271 137.251 3 48 992 15 64
1977233N28132 1977 69 WP MM NOT_NAMED 1977-08-22 06:00:00 TS 31.5000 137.800 40 990 tokyo main 282 280 _OO___________ -1 31.4000 137.600 3 40 990 0 9 200 200 0 31.6000 138.000 3 48 992 15 60
1977233N28132 1977 69 WP MM NOT_NAMED 1977-08-22 09:00:00 TS 31.9271 138.560 main 301 268 _PP___________ -1 31.7522 138.372 3 40 989 0 9 200 200 32.1021 138.748 3 48 990 15 59
1977233N28132 1977 69 WP MM NOT_NAMED 1977-08-22 12:00:00 TS 32.2500 139.300 40 988 tokyo main 260 260 _OO___________ -1 32.0000 139.100 3 40 988 0 9 200 200 0 32.5000 139.500 3 48 988 13 73
1977233N28132 1977 69 WP MM NOT_NAMED 1977-08-22 15:00:00 TS 32.2995 140.009 main 279 279 _PP___________ -1 32.0940 139.743 3 989 0 9 32.5049 140.274 3 48 989 12 92
1977233N28132 1977 69 WP MM NOT_NAMED 1977-08-22 18:00:00 MX 32.2000 140.700 990 tokyo main 309 309 _OO___________ -1 32.1000 140.400 6 990 0 0 0 32.3000 141.000 3 48 990 12 100
1977233N28132 1977 69 WP MM NOT_NAMED 1977-08-22 21:00:00 MX 32.0788 141.427 main 341 341 _PP___________ -1 32.1156 141.223 6 990 0 0 32.0420 141.631 3 48 990 12 102
1977233N28132 1977 69 WP MM NOT_NAMED 1977-08-23 00:00:00 ET 31.9500 142.100 990 tokyo main 382 391 _OO___________ -1 32.1000 142.000 6 990 0 0 0 31.8000 142.200 9 48 990 11 101
1977233N28132 1977 69 WP MM NOT_NAMED 1977-08-23 03:00:00 ET 31.8845 142.655 main 423 423 _PP___________ -1 32.0492 142.545 6 990 0 0 31.7198 142.764 9 43 990 9 96
1977233N28132 1977 69 WP MM NOT_NAMED 1977-08-23 06:00:00 ET 31.8500 143.150 990 tokyo main 449 444 _OO___________ -1 32.0000 143.000 6 990 0 0 0 31.7000 143.300 9 38 990 9 94
1977233N28132 1977 69 WP MM NOT_NAMED 1977-08-23 09:00:00 ET 31.8213 143.684 main 486 486 _PP___________ -1 31.9927 143.537 6 990 0 0 31.6500 143.830 9 38 990 9 93
1977233N28132 1977 69 WP MM NOT_NAMED 1977-08-23 12:00:00 ET 31.8000 144.150 990 tokyo main 516 510 _OO___________ -1 32.0000 144.000 6 990 0 0 0 31.6000 144.300 9 38 990 7 95
1977233N28132 1977 69 WP MM NOT_NAMED 1977-08-23 15:00:00 ET 31.7634 144.473 main 536 536 _PP___________ -1 31.9996 144.280 6 990 0 0 31.5271 144.665 9 38 990 5 96
1977233N28132 1977 69 WP MM NOT_NAMED 1977-08-23 18:00:00 ET 31.7500 144.750 990 tokyo main 556 564 _OO___________ -1 32.0000 144.500 6 990 0 0 0 31.5000 145.000 9 38 990 5 90
1977233N28132 1977 69 WP MM NOT_NAMED 1977-08-23 21:00:00 ET 31.7623 145.078 main 576 576 _PP___________ -1 31.9547 144.763 6 992 0 0 31.5699 145.392 9 38 992 6 80
1977233N28132 1977 69 WP MM NOT_NAMED 1977-08-24 00:00:00 ET 31.8500 145.450 994 tokyo main 598 598 _OO___________ -1 32.0000 145.100 6 994 0 0 0 31.7000 145.800 9 38 994 7 67
1977233N28132 1977 69 WP MM NOT_NAMED 1977-08-24 03:00:00 ET 32.0488 145.892 main 618 610 _PP___________ -1 32.2702 145.577 6 994 0 0 31.8274 146.208 9 38 994 9 59
1977233N28132 1977 69 WP MM NOT_NAMED 1977-08-24 06:00:00 ET 32.3000 146.350 994 tokyo main 632 625 _OO___________ -1 32.6000 146.100 6 994 0 0 0 32.0000 146.600 9 38 994 9 54
1977233N28132 1977 69 WP MM NOT_NAMED 1977-08-24 09:00:00 ET 32.5468 146.713 main 641 634 _PP___________ -1 32.8442 146.513 6 994 0 0 32.2494 146.913 9 38 994 8 56
1977233N28132 1977 69 WP MM NOT_NAMED 1977-08-24 12:00:00 ET 32.7500 147.150 994 tokyo main 661 659 _OO___________ -1 33.0000 147.000 6 994 0 0 0 32.5000 147.300 9 38 994 10 72
1977233N28132 1977 69 WP MM NOT_NAMED 1977-08-24 15:00:00 ET 32.8514 147.802 main 705 705 _PP___________ -1 33.0302 147.706 6 994 0 0 32.6726 147.898 9 33 995 12 83
1977233N28132 1977 69 WP MM NOT_NAMED 1977-08-24 18:00:00 ET 32.9000 148.550 994 tokyo main 771 771 _OO___________ -1 33.0000 148.500 6 994 0 0 0 32.8000 148.600 9 29 996 12 85
1977233N28132 1977 69 WP MM NOT_NAMED 1977-08-24 21:00:00 ET 32.9608 149.267 main 825 825 _PP___________ -1 32.9995 149.250 6 994 0 0 32.9221 149.285 9 29 996 12 85
1977233N28132 1977 69 WP MM NOT_NAMED 1977-08-25 00:00:00 ET 33.0000 150.000 994 tokyo main 885 885 _OO___________ -1 33.0000 150.000 6 994 0 0 0 33.0000 150.000 9 29 996 12 88
1977233N28132 1977 69 WP MM NOT_NAMED 1977-08-25 03:00:00 ET 33.0071 150.746 main 946 946 _PP___________ -1 32.9995 150.750 6 994 0 0 33.0147 150.743 9 29 996 13 90
1977233N28132 1977 69 WP MM NOT_NAMED 1977-08-25 06:00:00 ET 33.0000 151.500 994 tokyo main 1016 1016 _OO___________ -1 33.0000 151.500 6 994 0 0 0 33.0000 151.500 9 29 996 13 90
1977233N28132 1977 69 WP MM NOT_NAMED 1977-08-25 09:00:00 ET 33.0036 152.269 main 1086 1086 _PP___________ -1 32.9995 152.250 6 994 0 0 33.0076 152.287 9 26 996 13 90
1977233N28132 1977 69 WP MM NOT_NAMED 1977-08-25 12:00:00 ET 33.0000 153.000 994 tokyo main 1147 1147 _OO___________ -1 33.0000 153.000 6 994 0 0 0 33.0000 153.000 9 23 996 12 90
1977233N28132 1977 69 WP MM NOT_NAMED 1977-08-25 15:00:00 ET 33.0010 153.662 main 1209 1209 _PP___________ -1 33.0376 153.787 6 994 0 0 32.9643 153.537 9 23 996 10 93
1977233N28132 1977 69 WP MM NOT_NAMED 1977-08-25 18:00:00 ET 32.9500 154.250 994 tokyo main 1262 1262 _OO___________ -1 33.0000 154.500 6 994 0 0 0 32.9000 154.000 9 23 996 10 102
1977233N28132 1977 69 WP MM NOT_NAMED 1977-08-25 21:00:00 ET 32.7972 154.788 main 1313 1313 _PP___________ -1 32.7871 155.076 6 995 0 0 32.8073 154.500 9 23 997 9 113
1977233N28132 1977 69 WP MM NOT_NAMED 1977-08-26 00:00:00 ET 32.6000 155.250 996 tokyo main 1365 1365 _OO___________ -1 32.5000 155.500 6 996 0 0 0 32.7000 155.000 9 23 998 8 119
1977233N28132 1977 69 WP MM NOT_NAMED 1977-08-26 03:00:00 ET 32.4058 155.625 main 1399 1399 _PP___________ -1 32.2119 155.750 6 996 0 0 32.5998 155.500 9 23 998 7 119
1977233N28132 1977 69 WP MM NOT_NAMED 1977-08-26 06:00:00 ET 32.2500 156.000 996 tokyo main 1438 1438 _OO___________ -1 32.0000 156.000 6 996 0 0 0 32.5000 156.000 9 23 998 8 107
1977233N28132 1977 69 WP MM NOT_NAMED 1977-08-26 09:00:00 ET 32.1812 156.481 main 1486 1486 _PP___________ -1 31.9627 156.462 6 996 0 0 32.3998 156.500 9 21 998 9 97
1977233N28132 1977 69 WP MM NOT_NAMED 1977-08-26 12:00:00 ET 32.1500 157.000 996 tokyo main 1530 1530 _OO___________ -1 32.0000 157.000 6 996 0 0 0 32.3000 157.000 9 19 998 9 96
1977233N28132 1977 69 WP MM NOT_NAMED 1977-08-26 15:00:00 ET 32.0960 157.496 main 1578 1578 _PP___________ -1 31.9997 157.493 6 997 0 0 32.1923 157.500 9 19 999 9 97
1977233N28132 1977 69 WP MM NOT_NAMED 1977-08-26 18:00:00 ET 32.0500 158.000 998 tokyo main 1622 1626 _OO___________ -1 32.0000 158.000 6 998 0 0 0 32.1000 158.000 9 19 1000 9 95
1977233N28132 1977 69 WP MM NOT_NAMED 1977-08-26 21:00:00 ET 32.0205 158.520 main 1671 1671 _PP___________ -1 32.0006 158.540 6 1001 0 0 32.0404 158.500 9 19 1002 9 93
1977233N28132 1977 69 WP MM NOT_NAMED 1977-08-27 00:00:00 ET 32.0000 159.050 1004 tokyo main 1715 _OO___________ -1 32.0000 159.100 6 1004 0 0 0 32.0000 159.000 9 19 1004 9 93

Digital Typhoon Data and Search

About IBTrACS Database

This database is a web-friendly format of International Best Track Archive for Climate Stewardship (IBTrACS), a global best track data archive curated by NOAA dating back to 1842.

Updated: 2021-10-21